createdAt,value
2017-11-03T00:00:36.035Z,20.62
2017-11-03T00:03:03.265Z,24.25
2017-11-03T00:05:29.838Z,23.15
2017-11-03T00:07:56.268Z,23.60
2017-11-03T00:10:22.734Z,21.67
2017-11-03T00:12:49.178Z,21.02
2017-11-03T00:15:15.598Z,17.85
2017-11-03T00:17:42.046Z,19.95
2017-11-03T00:20:08.530Z,18.65
2017-11-03T00:22:34.963Z,17.75
2017-11-03T00:25:02.172Z,18.60
2017-11-03T00:27:28.636Z,18.25
2017-11-03T00:29:55.103Z,18.25
2017-11-03T00:32:21.557Z,18.35
2017-11-03T00:34:48.030Z,17.52
2017-11-03T00:37:14.466Z,19.92
2017-11-03T00:39:40.895Z,18.05
2017-11-03T00:42:07.335Z,17.58
2017-11-03T00:44:34.318Z,20.48
2017-11-03T00:47:00.794Z,21.25
2017-11-03T00:49:27.249Z,20.00
2017-11-03T00:51:53.669Z,21.75
2017-11-03T00:54:20.173Z,21.05
2017-11-03T00:56:46.601Z,18.70
2017-11-03T00:59:13.061Z,19.05
2017-11-03T01:01:39.506Z,18.02
2017-11-03T01:04:05.930Z,18.17
2017-11-03T01:06:32.450Z,18.27
2017-11-03T01:08:58.905Z,17.62
2017-11-03T01:11:25.366Z,17.75
2017-11-03T01:13:51.856Z,18.40
2017-11-03T01:16:18.345Z,20.23
2017-11-03T01:18:44.761Z,19.85
2017-11-03T01:21:11.965Z,19.80
2017-11-03T01:23:38.382Z,19.12
2017-11-03T01:26:04.838Z,19.48
2017-11-03T01:28:31.286Z,19.62
2017-11-03T01:30:57.785Z,19.08
2017-11-03T01:33:24.226Z,18.60
2017-11-03T01:35:50.706Z,18.45
2017-11-03T01:38:17.181Z,18.45
2017-11-03T01:40:43.610Z,19.65
2017-11-03T01:43:10.842Z,19.83
2017-11-03T01:45:38.046Z,21.33
2017-11-03T01:48:04.501Z,18.87
2017-11-03T01:50:30.957Z,20.15
2017-11-03T01:52:58.143Z,20.40
2017-11-03T01:55:24.570Z,20.45
2017-11-03T01:57:51.010Z,20.45
2017-11-03T02:00:17.454Z,20.73
2017-11-03T02:02:43.947Z,20.05
2017-11-03T02:05:10.421Z,18.75
2017-11-03T02:07:36.853Z,19.85
2017-11-03T02:10:03.337Z,20.17
2017-11-03T02:12:30.582Z,19.87
2017-11-03T02:14:57.049Z,20.60
2017-11-03T02:17:23.529Z,20.75
2017-11-03T02:19:50.050Z,23.33
2017-11-03T02:22:16.531Z,23.17
2017-11-03T02:24:42.992Z,22.13
2017-11-03T02:27:09.456Z,22.70
2017-11-03T02:29:36.007Z,21.65
2017-11-03T02:32:03.237Z,24.40
2017-11-03T02:34:29.708Z,20.42
2017-11-03T02:36:56.197Z,22.33
2017-11-03T02:39:22.689Z,25.92
2017-11-03T02:41:49.862Z,23.48
2017-11-03T02:44:16.293Z,24.77
2017-11-03T02:46:42.780Z,21.77
2017-11-03T02:49:09.189Z,23.00
2017-11-03T02:51:35.646Z,23.62
2017-11-03T02:54:02.081Z,21.87
2017-11-03T02:56:29.308Z,23.25
2017-11-03T02:58:55.758Z,23.15
2017-11-03T03:01:22.249Z,25.17
2017-11-03T03:03:48.702Z,22.20
2017-11-03T03:06:15.147Z,21.60
2017-11-03T03:08:41.567Z,22.75
2017-11-03T03:11:08.004Z,23.15
2017-11-03T03:13:34.427Z,21.98
2017-11-03T03:16:00.917Z,23.25
2017-11-03T03:18:28.221Z,22.23
2017-11-03T03:20:54.688Z,21.00
2017-11-03T03:23:21.926Z,26.83
2017-11-03T03:25:48.422Z,25.35
2017-11-03T03:28:14.911Z,26.75
2017-11-03T03:30:43.158Z,23.38
2017-11-03T03:33:09.645Z,26.75
2017-11-03T03:35:36.102Z,24.48
2017-11-03T03:38:02.636Z,27.10
2017-11-03T03:40:29.129Z,25.20
2017-11-03T03:42:55.596Z,23.85
2017-11-03T03:45:22.082Z,21.70
2017-11-03T03:47:49.324Z,20.17
2017-11-03T03:50:15.834Z,20.50
2017-11-03T03:52:42.335Z,22.60
2017-11-03T03:55:09.570Z,34.35
2017-11-03T03:57:36.030Z,26.98
2017-11-03T04:00:02.543Z,20.90
2017-11-03T04:02:29.049Z,18.42
2017-11-03T04:04:55.518Z,21.67
2017-11-03T04:07:22.734Z,19.10
2017-11-03T04:09:49.947Z,20.52
2017-11-03T04:12:16.421Z,17.45
2017-11-03T04:14:42.857Z,20.98
2017-11-03T04:17:10.075Z,18.48
2017-11-03T04:19:36.522Z,21.40
2017-11-03T04:22:02.983Z,17.65
2017-11-03T04:24:30.195Z,20.50
2017-11-03T04:26:57.422Z,16.23
2017-11-03T04:29:23.894Z,15.02
2017-11-03T04:31:50.395Z,17.02
2017-11-03T04:34:16.890Z,16.90
2017-11-03T04:36:43.390Z,16.40
2017-11-03T04:39:09.897Z,20.23
2017-11-03T04:41:36.362Z,17.05
2017-11-03T04:44:02.906Z,19.02
2017-11-03T04:46:29.434Z,19.20
2017-11-03T04:48:55.900Z,19.52
2017-11-03T04:51:23.162Z,17.73
2017-11-03T04:53:50.379Z,18.87
2017-11-03T04:56:16.869Z,20.83
2017-11-03T04:58:43.349Z,20.08
2017-11-03T05:01:09.801Z,18.00
2017-11-03T05:03:37.008Z,17.95
2017-11-03T05:06:03.427Z,16.90
2017-11-03T05:08:29.890Z,16.73
2017-11-03T05:10:56.330Z,16.58
2017-11-03T05:13:22.819Z,16.05
2017-11-03T05:15:50.054Z,15.52
2017-11-03T05:18:17.274Z,15.63
2017-11-03T05:20:43.763Z,18.23
2017-11-03T05:23:10.931Z,14.57
2017-11-03T05:25:37.349Z,14.80
2017-11-03T05:28:03.785Z,13.98
2017-11-03T05:30:30.259Z,14.05
2017-11-03T05:32:56.753Z,13.35
2017-11-03T05:35:23.276Z,13.07
2017-11-03T05:37:49.847Z,11.70
2017-11-03T05:40:16.293Z,13.45
2017-11-03T05:42:42.798Z,13.38
2017-11-03T05:45:09.261Z,13.25
2017-11-03T05:47:35.845Z,12.52
2017-11-03T05:50:03.101Z,12.75
2017-11-03T05:52:29.563Z,14.38
2017-11-03T05:54:56.046Z,14.13
2017-11-03T05:57:22.558Z,13.48
2017-11-03T05:59:48.997Z,14.27
2017-11-03T06:02:15.657Z,15.57
2017-11-03T06:04:42.858Z,14.85
2017-11-03T06:07:09.292Z,15.35
2017-11-03T06:09:35.724Z,13.52
2017-11-03T06:12:02.201Z,18.85
2017-11-03T06:14:28.677Z,20.40
2017-11-03T06:16:55.126Z,18.08
2017-11-03T06:19:21.587Z,17.02
2017-11-03T06:21:48.024Z,15.45
2017-11-03T06:24:15.240Z,16.23
2017-11-03T06:26:41.674Z,14.70
2017-11-03T06:29:08.129Z,15.65
2017-11-03T06:31:35.293Z,15.90
2017-11-03T06:34:01.721Z,14.25
2017-11-03T06:36:28.161Z,13.02
2017-11-03T06:38:55.357Z,13.95
2017-11-03T06:41:21.856Z,16.92
2017-11-03T06:43:49.072Z,12.82
2017-11-03T06:46:15.552Z,16.92
2017-11-03T06:48:42.058Z,12.63
2017-11-03T06:51:08.482Z,13.25
2017-11-03T06:53:35.721Z,10.68
2017-11-03T06:56:02.180Z,10.38
2017-11-03T06:58:28.649Z,12.25
2017-11-03T07:00:55.198Z,10.38
2017-11-03T07:03:21.754Z,10.48
2017-11-03T07:05:48.243Z,11.60
2017-11-03T07:08:14.748Z,11.35
2017-11-03T07:10:41.226Z,11.95
2017-11-03T07:13:07.714Z,12.05
2017-11-03T07:15:34.186Z,12.65
2017-11-03T07:18:00.618Z,11.85
2017-11-03T07:20:27.162Z,10.45
2017-11-03T07:22:53.623Z,10.32
2017-11-03T07:25:20.073Z,10.18
2017-11-03T07:27:46.513Z,10.82
2017-11-03T07:30:12.954Z,18.15
2017-11-03T07:32:40.165Z,10.65
2017-11-03T07:35:06.590Z,11.07
2017-11-03T07:37:33.152Z,10.60
2017-11-03T07:39:59.606Z,11.55
2017-11-03T07:42:26.150Z,10.50
2017-11-03T07:44:52.587Z,10.85
2017-11-03T07:47:19.055Z,10.80
2017-11-03T07:49:45.549Z,10.35
2017-11-03T07:52:11.975Z,10.05
2017-11-03T07:54:38.432Z,11.18
2017-11-03T07:57:04.952Z,10.98
2017-11-03T07:59:31.393Z,10.90
2017-11-03T08:01:57.885Z,10.93
2017-11-03T08:04:24.323Z,10.45
2017-11-03T08:06:50.757Z,13.45
2017-11-03T08:09:17.230Z,11.07
2017-11-03T08:11:43.698Z,10.65
2017-11-03T08:14:10.149Z,13.85
2017-11-03T08:16:36.567Z,11.27
2017-11-03T08:19:03.036Z,11.25
2017-11-03T08:21:29.477Z,11.30
2017-11-03T08:23:56.051Z,13.43
2017-11-03T08:26:22.518Z,14.68
2017-11-03T08:28:49.270Z,16.77
2017-11-03T08:31:15.795Z,16.98
2017-11-03T08:33:42.336Z,16.42
2017-11-03T08:36:08.828Z,16.02
2017-11-03T08:38:35.322Z,16.70
2017-11-03T08:41:01.768Z,15.70
2017-11-03T08:43:28.207Z,17.73
2017-11-03T08:45:54.650Z,14.05
2017-11-03T08:48:21.125Z,15.55
2017-11-03T08:50:48.313Z,15.60
2017-11-03T08:53:14.773Z,17.15
2017-11-03T08:55:41.969Z,14.90
2017-11-03T08:58:08.492Z,15.68
2017-11-03T09:00:34.957Z,16.85
2017-11-03T09:03:01.457Z,18.27
2017-11-03T09:05:27.992Z,15.35
2017-11-03T09:07:54.502Z,16.25
2017-11-03T09:10:20.993Z,14.68
2017-11-03T09:12:47.475Z,14.80
2017-11-03T09:15:13.926Z,15.45
2017-11-03T09:17:40.436Z,16.35
2017-11-03T09:20:06.929Z,14.80
2017-11-03T09:22:34.194Z,13.48
2017-11-03T09:25:00.686Z,13.68
2017-11-03T09:27:27.209Z,11.38
2017-11-03T09:29:53.702Z,10.63
2017-11-03T09:32:21.003Z,10.73
2017-11-03T09:34:47.751Z,10.40
2017-11-03T09:37:14.286Z,8.20
2017-11-03T09:39:40.790Z,9.15
2017-11-03T09:42:07.322Z,9.68
2017-11-03T09:44:33.762Z,8.60
2017-11-03T09:47:00.269Z,9.10
2017-11-03T09:49:27.506Z,7.40
2017-11-03T09:51:53.974Z,8.10
2017-11-03T09:54:20.490Z,6.47
2017-11-03T09:56:46.990Z,7.20
2017-11-03T09:59:14.235Z,6.05
2017-11-03T10:01:40.698Z,3.87
2017-11-03T10:04:07.156Z,4.00
2017-11-03T10:06:33.606Z,4.45
2017-11-03T10:09:00.942Z,5.00
2017-11-03T10:11:28.201Z,5.82
2017-11-03T10:13:54.725Z,3.50
2017-11-03T10:16:21.267Z,4.65
2017-11-03T10:18:47.752Z,4.68
2017-11-03T10:21:14.272Z,4.57
2017-11-03T10:23:40.734Z,4.30
2017-11-03T10:26:07.335Z,7.22
2017-11-03T10:28:33.893Z,4.97
2017-11-03T10:31:00.361Z,4.75
2017-11-03T10:33:27.568Z,5.47
2017-11-03T10:35:54.000Z,7.15
2017-11-03T10:38:20.545Z,7.15
2017-11-03T10:40:47.078Z,6.97
2017-11-03T10:43:13.543Z,8.23
2017-11-03T10:45:40.064Z,7.20
2017-11-03T10:48:07.262Z,7.87
2017-11-03T10:50:33.806Z,6.57
2017-11-03T10:53:00.290Z,8.07
2017-11-03T10:55:26.799Z,8.70
2017-11-03T10:57:53.262Z,7.40
2017-11-03T11:00:19.821Z,7.75
2017-11-03T11:02:46.330Z,5.87
2017-11-03T11:05:13.623Z,6.15
2017-11-03T11:07:40.102Z,6.95
2017-11-03T11:10:06.618Z,6.97
2017-11-03T11:12:33.102Z,6.78
2017-11-03T11:15:00.294Z,5.55
2017-11-03T11:17:26.797Z,5.30
2017-11-03T11:19:53.306Z,5.15
2017-11-03T11:22:20.570Z,3.95
2017-11-03T11:24:47.788Z,4.78
2017-11-03T11:27:15.221Z,5.22
2017-11-03T11:29:41.739Z,4.57
2017-11-03T11:32:08.232Z,5.28
2017-11-03T11:34:35.502Z,5.00
2017-11-03T11:37:01.999Z,4.25
2017-11-03T11:39:29.277Z,6.75
2017-11-03T11:41:55.765Z,5.87
2017-11-03T11:44:22.335Z,5.05
2017-11-03T11:46:48.899Z,4.93
2017-11-03T11:49:15.428Z,5.28
2017-11-03T11:51:41.958Z,5.90
2017-11-03T11:54:09.171Z,5.68
2017-11-03T11:56:35.719Z,6.80
2017-11-03T11:59:03.101Z,6.37
2017-11-03T12:01:29.643Z,6.72
2017-11-03T12:03:56.162Z,6.72
2017-11-03T12:06:23.397Z,10.00
2017-11-03T12:08:49.957Z,8.80
2017-11-03T12:11:16.461Z,9.82
2017-11-03T12:13:43.809Z,5.37
2017-11-03T12:16:10.345Z,6.97
2017-11-03T12:18:36.965Z,5.80
2017-11-03T12:21:03.536Z,5.60
2017-11-03T12:23:30.055Z,8.05
2017-11-03T12:25:57.402Z,9.95
2017-11-03T12:28:23.957Z,6.85
2017-11-03T12:30:51.181Z,11.57
2017-11-03T12:33:17.725Z,7.43
2017-11-03T12:35:47.806Z,8.68
2017-11-03T12:38:14.422Z,10.68
2017-11-03T12:40:41.665Z,10.27
2017-11-03T12:43:08.908Z,8.63
2017-11-03T12:45:36.277Z,8.95
2017-11-03T12:48:02.782Z,7.80
2017-11-03T12:50:29.320Z,7.97
2017-11-03T12:52:56.612Z,8.35
2017-11-03T12:55:23.162Z,7.90
2017-11-03T12:57:49.709Z,9.48
2017-11-03T13:00:16.221Z,14.15
2017-11-03T13:02:42.761Z,12.50
2017-11-03T13:05:11.032Z,8.90
2017-11-03T13:07:38.492Z,7.15
2017-11-03T13:10:05.729Z,8.00
2017-11-03T13:12:32.267Z,8.07
2017-11-03T13:14:58.797Z,8.65
2017-11-03T13:17:25.382Z,9.73
2017-11-03T13:19:51.928Z,8.07
2017-11-03T13:22:18.484Z,7.65
2017-11-03T13:24:44.990Z,7.00
2017-11-03T13:27:11.535Z,8.00
2017-11-03T13:29:38.103Z,10.90
2017-11-03T13:32:04.667Z,7.60
2017-11-03T13:34:31.158Z,11.73
2017-11-03T13:36:58.419Z,10.80
2017-11-03T13:39:25.698Z,7.62
2017-11-03T13:41:52.325Z,7.57
2017-11-03T13:44:18.901Z,9.35
2017-11-03T13:46:45.402Z,8.20
2017-11-03T13:49:11.926Z,9.35
2017-11-03T13:51:38.496Z,12.48
2017-11-03T13:54:04.972Z,7.43
2017-11-03T13:56:32.231Z,5.90
2017-11-03T13:58:59.566Z,7.90
2017-11-03T14:01:27.067Z,12.55
2017-11-03T14:03:54.321Z,7.50
2017-11-03T14:06:20.858Z,6.80
2017-11-03T14:08:47.417Z,8.15
2017-11-03T14:11:13.996Z,6.53
2017-11-03T14:13:40.454Z,6.85
2017-11-03T14:16:07.642Z,6.60
2017-11-03T14:18:34.115Z,7.25
2017-11-03T14:21:00.544Z,6.07
2017-11-03T14:23:27.006Z,6.43
2017-11-03T14:25:54.175Z,7.80
2017-11-03T14:28:20.665Z,7.72
2017-11-03T14:30:47.113Z,8.48
2017-11-03T14:33:13.541Z,7.22
2017-11-03T14:35:40.001Z,6.05
2017-11-03T14:38:06.457Z,7.00
2017-11-03T14:40:43.729Z,6.80
2017-11-03T14:43:10.199Z,11.02
2017-11-03T14:45:36.806Z,6.53
2017-11-03T14:48:03.232Z,6.60
2017-11-03T14:50:29.643Z,14.23
2017-11-03T14:52:56.851Z,10.70
2017-11-03T14:55:23.297Z,9.73
2017-11-03T14:57:49.766Z,10.13
2017-11-03T15:00:16.222Z,8.15
2017-11-03T15:02:42.671Z,10.68
2017-11-03T15:05:09.125Z,7.97
2017-11-03T15:07:35.541Z,6.68
2017-11-03T15:10:01.988Z,6.97
2017-11-03T15:12:28.454Z,9.23
2017-11-03T15:14:55.628Z,7.75
2017-11-03T15:17:22.129Z,8.48
2017-11-03T15:19:49.365Z,8.57
2017-11-03T15:22:15.830Z,7.70
2017-11-03T15:24:42.381Z,8.30
2017-11-03T15:27:08.891Z,7.60
2017-11-03T15:29:35.504Z,13.02
2017-11-03T15:32:02.006Z,9.00
2017-11-03T15:34:28.464Z,8.77
2017-11-03T15:36:54.921Z,10.15
2017-11-03T15:39:21.409Z,8.75
2017-11-03T15:41:47.842Z,8.60
2017-11-03T15:44:14.310Z,7.50
2017-11-03T15:46:40.831Z,9.27
2017-11-03T15:49:07.286Z,9.25
2017-11-03T15:51:34.525Z,9.90
2017-11-03T15:54:01.021Z,16.02
2017-11-03T15:56:27.541Z,9.48
2017-11-03T15:58:54.031Z,10.93
2017-11-03T16:01:21.222Z,11.00
2017-11-03T16:03:47.710Z,9.15
2017-11-03T16:06:14.138Z,8.52
2017-11-03T16:08:40.668Z,14.57
2017-11-03T16:11:07.103Z,13.82
2017-11-03T16:13:33.550Z,29.33
2017-11-03T16:16:00.087Z,16.37
2017-11-03T16:18:26.547Z,10.25
2017-11-03T16:20:53.769Z,10.65
2017-11-03T16:23:20.193Z,9.93
2017-11-03T16:25:46.666Z,11.07
2017-11-03T16:28:13.082Z,10.18
2017-11-03T16:30:39.538Z,8.88
2017-11-03T16:33:06.766Z,12.18
2017-11-03T16:35:33.286Z,10.88
2017-11-03T16:37:59.720Z,10.45
2017-11-03T16:40:26.960Z,11.55
2017-11-03T16:42:53.441Z,11.00
2017-11-03T16:45:20.667Z,11.93
2017-11-03T16:47:47.294Z,11.90
2017-11-03T16:50:13.783Z,10.68
2017-11-03T16:52:40.250Z,11.43
2017-11-03T16:55:06.757Z,11.90
2017-11-03T16:57:33.312Z,10.45
2017-11-03T16:59:59.809Z,13.38
2017-11-03T17:02:26.355Z,12.52
2017-11-03T17:04:52.960Z,13.10
2017-11-03T17:07:20.211Z,16.40
2017-11-03T17:09:47.414Z,13.40
2017-11-03T17:12:13.914Z,13.32
2017-11-03T17:14:40.394Z,17.62
2017-11-03T17:17:06.919Z,14.23
2017-11-03T17:19:33.350Z,15.95
2017-11-03T17:21:59.833Z,15.57
2017-11-03T17:24:26.318Z,19.17
2017-11-03T17:26:53.491Z,18.15
2017-11-03T17:29:19.940Z,17.50
2017-11-03T17:31:46.398Z,16.67
2017-11-03T17:34:12.878Z,18.90
2017-11-03T17:36:39.373Z,20.90
2017-11-03T17:39:05.817Z,17.85
2017-11-03T17:41:32.354Z,18.45
2017-11-03T17:43:58.835Z,23.73
2017-11-03T17:46:25.396Z,16.37
2017-11-03T17:48:51.911Z,21.17
2017-11-03T17:51:18.390Z,18.75
2017-11-03T17:53:44.867Z,23.87
2017-11-03T17:56:12.093Z,22.83
2017-11-03T17:58:39.390Z,22.95
2017-11-03T18:01:06.596Z,22.75
2017-11-03T18:03:33.095Z,19.55
2017-11-03T18:05:59.599Z,19.52
2017-11-03T18:08:26.080Z,22.50
2017-11-03T18:10:52.678Z,18.90
2017-11-03T18:13:19.975Z,18.33
2017-11-03T18:15:46.470Z,19.90
2017-11-03T18:18:13.710Z,19.98
2017-11-03T18:20:40.222Z,19.08
2017-11-03T18:23:06.690Z,22.90
2017-11-03T18:25:33.896Z,20.55
2017-11-03T18:28:00.386Z,18.50
2017-11-03T18:30:26.958Z,16.37
2017-11-03T18:32:53.445Z,18.77
2017-11-03T18:35:19.970Z,20.40
2017-11-03T18:37:46.482Z,19.10
2017-11-03T18:40:13.006Z,20.90
2017-11-03T18:42:39.487Z,16.80
2017-11-03T18:45:05.989Z,20.17
2017-11-03T18:47:32.447Z,20.00
2017-11-03T18:49:58.946Z,20.12
2017-11-03T18:52:25.466Z,16.92
2017-11-03T18:54:51.927Z,19.48
2017-11-03T18:57:19.144Z,17.12
2017-11-03T18:59:45.678Z,17.42
2017-11-03T19:02:17.140Z,18.27
2017-11-03T19:04:43.602Z,19.70
2017-11-03T19:07:10.061Z,20.40
2017-11-03T19:09:36.701Z,21.73
2017-11-03T19:12:03.206Z,20.65
2017-11-03T19:14:29.673Z,19.90
2017-11-03T19:16:56.837Z,18.90
2017-11-03T19:19:23.333Z,19.12
2017-11-03T19:21:49.795Z,19.35
2017-11-03T19:24:16.285Z,19.77
2017-11-03T19:26:42.799Z,20.70
2017-11-03T19:29:09.242Z,19.48
2017-11-03T19:31:35.691Z,21.65
2017-11-03T19:34:02.933Z,22.35
2017-11-03T19:36:29.411Z,21.37
2017-11-03T19:38:55.854Z,21.08
2017-11-03T19:41:22.336Z,21.00
2017-11-03T19:43:48.838Z,26.23
2017-11-03T19:46:15.355Z,24.35
2017-11-03T19:48:41.914Z,23.92
2017-11-03T19:51:08.413Z,20.55
2017-11-03T19:53:35.658Z,20.90
2017-11-03T19:56:02.105Z,23.40
2017-11-03T19:58:28.629Z,24.98
2017-11-03T20:00:55.858Z,22.83
2017-11-03T20:03:22.314Z,21.55
2017-11-03T20:05:49.547Z,25.05
2017-11-03T20:08:16.021Z,24.92
2017-11-03T20:10:42.549Z,24.65
2017-11-03T20:13:09.022Z,22.45
2017-11-03T20:15:35.496Z,22.62
2017-11-03T20:18:02.341Z,26.52
2017-11-03T20:20:29.534Z,20.77
2017-11-03T20:22:55.978Z,22.87
2017-11-03T20:25:22.471Z,22.25
2017-11-03T20:27:48.922Z,22.20
2017-11-03T20:30:15.419Z,25.62
2017-11-03T20:32:42.655Z,21.62
2017-11-03T20:35:09.230Z,22.05
2017-11-03T20:37:35.694Z,22.60
2017-11-03T20:40:02.327Z,25.05
2017-11-03T20:42:29.590Z,25.55
2017-11-03T20:44:56.975Z,26.65
2017-11-03T20:47:25.997Z,24.35
2017-11-03T20:49:52.819Z,21.73
2017-11-03T20:52:20.030Z,27.30
2017-11-03T20:54:46.455Z,23.25
2017-11-03T20:57:12.935Z,28.60
2017-11-03T20:59:39.388Z,25.55
2017-11-03T21:02:05.930Z,30.73
2017-11-03T21:04:32.422Z,30.98
2017-11-03T21:06:58.898Z,27.05
2017-11-03T21:09:25.397Z,31.02
2017-11-03T21:11:51.870Z,28.10
2017-11-03T21:14:18.329Z,38.97
2017-11-03T21:16:44.828Z,37.38
2017-11-03T21:19:11.270Z,38.95
2017-11-03T21:21:38.538Z,31.48
2017-11-03T21:24:04.997Z,28.77
2017-11-03T21:26:31.466Z,47.17
2017-11-03T21:28:57.934Z,39.38
2017-11-03T21:31:24.417Z,31.30
2017-11-03T21:33:51.661Z,33.45
2017-11-03T21:36:18.143Z,30.65
2017-11-03T21:38:45.377Z,30.45
2017-11-03T21:41:11.896Z,30.05
2017-11-03T21:43:39.199Z,28.58
2017-11-03T21:46:05.652Z,34.10
2017-11-03T21:48:32.115Z,37.72
2017-11-03T21:50:58.585Z,29.27
2017-11-03T21:53:25.060Z,26.40
2017-11-03T21:55:52.307Z,27.13
2017-11-03T21:58:19.548Z,28.42
2017-11-03T22:00:46.024Z,26.98
2017-11-03T22:03:12.494Z,28.25
2017-11-03T22:05:38.983Z,30.40
2017-11-03T22:08:05.473Z,28.10
2017-11-03T22:10:31.960Z,28.15
2017-11-03T22:12:59.149Z,25.08
2017-11-03T22:15:25.593Z,27.10
2017-11-03T22:17:52.054Z,27.95
2017-11-03T22:20:18.498Z,25.25
2017-11-03T22:22:45.713Z,21.10
2017-11-03T22:25:12.281Z,25.35
2017-11-03T22:27:38.746Z,20.80
2017-11-03T22:30:05.191Z,25.17
2017-11-03T22:32:31.667Z,21.02
2017-11-03T22:34:58.120Z,20.92
2017-11-03T22:37:25.362Z,25.05
2017-11-03T22:39:51.826Z,24.60
2017-11-03T22:42:18.330Z,22.00
2017-11-03T22:44:45.607Z,23.67
2017-11-03T22:47:12.100Z,28.95
2017-11-03T22:49:38.567Z,22.05
2017-11-03T22:52:05.838Z,21.48
2017-11-03T22:54:32.358Z,25.58
2017-11-03T22:56:59.562Z,27.20
2017-11-03T22:59:26.022Z,28.48
2017-11-03T23:01:52.480Z,28.73
2017-11-03T23:04:19.668Z,26.45
2017-11-03T23:06:46.194Z,27.33
2017-11-03T23:09:12.668Z,28.83
2017-11-03T23:11:39.106Z,30.00
2017-11-03T23:14:05.602Z,29.85
2017-11-03T23:16:32.027Z,29.50
2017-11-03T23:18:58.520Z,27.13
2017-11-03T23:21:25.011Z,28.35
2017-11-03T23:23:51.476Z,27.85
2017-11-03T23:26:17.994Z,24.73
2017-11-03T23:28:44.454Z,28.60
2017-11-03T23:31:10.902Z,26.17
2017-11-03T23:33:38.097Z,25.58
2017-11-03T23:36:04.530Z,28.17
2017-11-03T23:38:32.018Z,29.52
2017-11-03T23:40:59.210Z,28.23
2017-11-03T23:43:25.664Z,27.37
2017-11-03T23:45:52.139Z,28.12
2017-11-03T23:48:18.610Z,28.45
2017-11-03T23:50:45.059Z,28.62
2017-11-03T23:53:11.534Z,27.95
2017-11-03T23:55:38.790Z,30.90
2017-11-03T23:58:05.267Z,28.05
